Time;durP1;ratioP1;P1;durP2;ratioP2;P2;SDS_P1;SDS_P2;PMS_P1;PMS_P2;Temp;Humidity;BMP_temperature;BMP_pressure;BME280_temperature;BME280_humidity;BME280_pressure;Samples;Min_cycle;Max_cycle;Signal;HPM_P1;HPM_P2
2022/07/03 00:00:48;;;;;;;2.47;1.90;;;;;204.60;224519.00;;;;4944264;28;20628;-72
2022/07/03 00:03:34;;;;;;;2.00;1.90;;;;;204.60;224519.00;;;;4942307;28;20724;-71
2022/07/03 00:06:20;;;;;;;2.93;2.03;;;;;204.60;224519.00;;;;4943752;28;20345;-71
2022/07/03 00:09:07;;;;;;;6.03;2.20;;;;;204.60;224519.00;;;;4939316;28;20287;-71
2022/07/03 00:11:53;;;;;;;3.23;2.07;;;;;204.60;224519.00;;;;4945746;28;20380;-70
2022/07/03 00:14:39;;;;;;;2.10;1.90;;;;;204.60;224519.00;;;;4942178;28;20239;-70
2022/07/03 00:17:28;;;;;;;2.57;2.10;;;;;204.60;224519.00;;;;4941519;28;20232;-70
2022/07/03 00:20:14;;;;;;;2.80;2.30;;;;;204.60;224519.00;;;;4941362;28;20268;-70
2022/07/03 00:23:05;;;;;;;3.00;2.10;;;;;204.60;224519.00;;;;4935743;28;20228;-70
2022/07/03 00:25:52;;;;;;;2.80;2.07;;;;;204.60;224519.00;;;;4942197;28;20236;-71
2022/07/03 00:28:38;;;;;;;2.33;1.90;;;;;204.60;224519.00;;;;4944802;28;20244;-70
2022/07/03 00:31:24;;;;;;;2.27;1.97;;;;;204.60;224519.00;;;;4939183;28;20261;-70
2022/07/03 00:34:16;;;;;;;2.77;2.10;;;;;204.60;224519.00;;;;4942190;28;20616;-70
2022/07/03 00:37:03;;;;;;;2.37;2.17;;;;;204.60;224519.00;;;;4944454;28;20232;-70
2022/07/03 00:39:54;;;;;;;3.33;2.23;;;;;204.60;224519.00;;;;4945956;28;22407;-71
2022/07/03 00:42:40;;;;;;;4.43;2.10;;;;;204.60;224519.00;;;;4944886;28;20303;-69
2022/07/03 00:45:27;;;;;;;2.67;2.13;;;;;204.60;224519.00;;;;4940465;28;20356;-69
2022/07/03 00:48:15;;;;;;;2.53;2.10;;;;;204.60;224519.00;;;;4947732;28;20239;-70
2022/07/03 00:51:06;;;;;;;2.30;2.10;;;;;204.60;224519.00;;;;4942644;28;20277;-70
2022/07/03 00:53:54;;;;;;;3.70;2.47;;;;;204.60;224519.00;;;;4949338;28;20227;-71
2022/07/03 00:56:45;;;;;;;2.20;2.00;;;;;204.60;224519.00;;;;4947024;28;20306;-71
2022/07/03 00:59:31;;;;;;;2.37;2.17;;;;;204.60;224519.00;;;;4946400;28;20240;-70
2022/07/03 01:02:35;;;;;;;2.47;2.27;;;;;204.60;224519.00;;;;4944518;28;20308;-70
2022/07/03 01:05:28;;;;;;;2.40;2.20;;;;;204.60;224519.00;;;;4944650;28;20227;-68
2022/07/03 01:08:41;;;;;;;3.70;2.30;;;;;204.60;224519.00;;;;4945130;28;20335;-69
2022/07/03 01:11:34;;;;;;;2.43;2.23;;;;;204.60;224519.00;;;;4947551;28;20274;-70
2022/07/03 01:14:28;;;;;;;4.23;2.53;;;;;204.60;224519.00;;;;4949123;28;20252;-71
2022/07/03 01:17:22;;;;;;;3.73;2.13;;;;;204.60;224519.00;;;;4947980;28;20271;-71
2022/07/03 01:20:09;;;;;;;3.10;2.23;;;;;204.60;224519.00;;;;4944550;28;20266;-69
2022/07/03 01:22:58;;;;;;;2.07;1.97;;;;;204.60;224519.00;;;;4950609;28;20314;-71
2022/07/03 01:25:49;;;;;;;2.60;2.40;;;;;204.60;224519.00;;;;4950065;28;20259;-71
2022/07/03 01:28:39;;;;;;;2.57;2.37;;;;;204.60;224519.00;;;;4947235;28;20259;-71
2022/07/03 01:31:27;;;;;;;2.90;2.43;;;;;204.60;224519.00;;;;4947221;28;20232;-70
2022/07/03 01:34:16;;;;;;;3.53;2.50;;;;;204.60;224519.00;;;;4944047;28;20588;-70
2022/07/03 01:37:05;;;;;;;2.60;2.40;;;;;204.60;224519.00;;;;4950053;28;20608;-71
2022/07/03 01:39:54;;;;;;;2.63;2.40;;;;;204.60;224519.00;;;;4948546;28;20733;-71
2022/07/03 01:42:45;;;;;;;2.93;2.50;;;;;204.60;224519.00;;;;4944479;28;20311;-71
2022/07/03 01:45:33;;;;;;;2.40;2.20;;;;;204.60;224519.00;;;;4944154;28;20231;-69
2022/07/03 01:48:22;;;;;;;2.50;2.30;;;;;204.60;224519.00;;;;4945257;28;20232;-70
2022/07/03 01:51:10;;;;;;;2.83;2.63;;;;;204.60;224519.00;;;;4948285;28;20235;-70
2022/07/03 01:54:00;;;;;;;3.90;2.60;;;;;204.60;224519.00;;;;4947538;28;20239;-70
2022/07/03 01:56:47;;;;;;;3.00;2.70;;;;;204.60;224519.00;;;;4948792;28;20721;-70
2022/07/03 01:59:35;;;;;;;3.30;2.70;;;;;204.60;224519.00;;;;4947699;28;20736;-71
2022/07/03 02:02:25;;;;;;;2.87;2.63;;;;;204.60;224519.00;;;;4947138;28;20232;-72
2022/07/03 02:05:22;;;;;;;2.80;2.60;;;;;204.60;224519.00;;;;4946677;28;20292;-69
2022/07/03 02:08:25;;;;;;;3.60;2.30;;;;;204.60;224519.00;;;;4936912;28;20239;-69
2022/07/03 02:11:15;;;;;;;2.63;2.43;;;;;204.60;224519.00;;;;4939596;28;20251;-71
2022/07/03 02:14:12;;;;;;;3.60;2.27;;;;;204.60;224519.00;;;;4948374;28;20236;-71
2022/07/03 02:17:08;;;;;;;2.60;2.40;;;;;204.60;224519.00;;;;4947272;28;20360;-71
2022/07/03 02:19:56;;;;;;;3.40;2.50;;;;;204.60;224519.00;;;;4947699;28;20331;-72
2022/07/03 02:22:45;;;;;;;2.90;2.60;;;;;204.60;224519.00;;;;4946813;28;20264;-71
2022/07/03 02:25:35;;;;;;;3.10;2.80;;;;;204.60;224519.00;;;;4943278;28;20365;-71
2022/07/03 02:28:31;;;;;;;2.93;2.63;;;;;204.60;224519.00;;;;4941205;28;20240;-72
2022/07/03 02:31:19;;;;;;;3.37;2.70;;;;;204.60;224519.00;;;;4944968;28;20231;-71
2022/07/03 02:34:08;;;;;;;2.80;2.60;;;;;204.60;224519.00;;;;4945359;28;20232;-72
2022/07/03 02:37:00;;;;;;;3.63;2.93;;;;;204.60;224519.00;;;;4948182;28;20361;-71
2022/07/03 02:39:52;;;;;;;3.13;2.83;;;;;204.60;224519.00;;;;4945726;28;20757;-70
2022/07/03 02:42:43;;;;;;;3.20;2.80;;;;;204.60;224519.00;;;;4946931;28;20440;-71
2022/07/03 02:45:38;;;;;;;2.90;2.70;;;;;204.60;224519.00;;;;4942210;28;20608;-72
2022/07/03 02:48:30;;;;;;;3.13;2.83;;;;;204.60;224519.00;;;;4945062;28;20361;-71
2022/07/03 02:51:23;;;;;;;3.63;2.67;;;;;204.60;224519.00;;;;4945726;28;20311;-71
2022/07/03 02:54:14;;;;;;;3.33;3.03;;;;;204.60;224519.00;;;;4946985;28;20319;-72
2022/07/03 02:57:07;;;;;;;3.30;3.00;;;;;204.60;224519.00;;;;4948045;28;20251;-71
2022/07/03 02:59:55;;;;;;;3.00;2.80;;;;;204.60;224519.00;;;;4944078;28;20368;-71
2022/07/03 03:02:54;;;;;;;3.70;2.90;;;;;204.60;224519.00;;;;4945376;28;20299;-71
2022/07/03 03:05:47;;;;;;;3.33;2.53;;;;;204.60;224519.00;;;;4944936;28;20284;-71
2022/07/03 03:08:42;;;;;;;3.37;3.00;;;;;204.60;224519.00;;;;4937660;28;20236;-71
2022/07/03 03:11:40;;;;;;;3.43;2.87;;;;;204.60;224519.00;;;;4940236;28;20723;-72
2022/07/03 03:14:35;;;;;;;4.83;2.80;;;;;204.60;224519.00;;;;4936056;28;20313;-71
2022/07/03 03:17:25;;;;;;;3.47;3.17;;;;;204.60;224519.00;;;;4938152;28;20232;-71
2022/07/03 03:20:16;;;;;;;3.27;2.97;;;;;204.60;224519.00;;;;4944219;28;20238;-71
2022/07/03 03:23:18;;;;;;;3.27;2.80;;;;;204.60;224519.00;;;;4945269;28;20340;-71
2022/07/03 03:26:06;;;;;;;4.00;2.70;;;;;204.60;224519.00;;;;4947525;28;20271;-72
2022/07/03 03:28:54;;;;;;;3.20;2.90;;;;;204.60;224519.00;;;;4943059;28;20227;-70
2022/07/03 03:31:40;;;;;;;3.20;2.90;;;;;204.60;224519.00;;;;4944989;28;20231;-72
2022/07/03 03:34:28;;;;;;;3.60;3.30;;;;;204.60;224519.00;;;;4945962;28;20231;-71
2022/07/03 03:37:14;;;;;;;3.80;3.13;;;;;204.60;224519.00;;;;4942255;28;20306;-71
2022/07/03 03:40:02;;;;;;;3.47;3.13;;;;;204.60;224519.00;;;;4942827;28;20232;-72
2022/07/03 03:42:50;;;;;;;3.47;3.13;;;;;204.60;224519.00;;;;4945082;28;20231;-71
2022/07/03 03:45:37;;;;;;;4.97;2.90;;;;;204.60;224519.00;;;;4946258;28;20292;-73
2022/07/03 03:48:23;;;;;;;3.40;3.10;;;;;204.60;224519.00;;;;4948415;28;20242;-71
2022/07/03 03:51:09;;;;;;;3.60;3.30;;;;;204.60;224519.00;;;;4947352;28;20302;-71
2022/07/03 03:53:55;;;;;;;3.40;3.10;;;;;204.60;224519.00;;;;4946695;28;20232;-71
2022/07/03 03:56:42;;;;;;;3.37;3.07;;;;;204.60;224519.00;;;;4946151;28;20712;-71
2022/07/03 03:59:30;;;;;;;3.10;2.80;;;;;204.60;224519.00;;;;4946398;28;20598;-71
2022/07/03 04:02:17;;;;;;;3.03;2.83;;;;;204.60;224519.00;;;;4940483;28;20332;-71
2022/07/03 04:05:04;;;;;;;3.67;3.00;;;;;204.60;224519.00;;;;4946523;28;20678;-71
2022/07/03 04:07:51;;;;;;;3.17;2.83;;;;;204.60;224519.00;;;;4943382;28;20629;-71
2022/07/03 04:10:37;;;;;;;3.33;3.00;;;;;204.60;224519.00;;;;4936839;28;20333;-71
2022/07/03 04:13:24;;;;;;;3.40;3.10;;;;;204.60;224519.00;;;;4943793;28;20226;-71
2022/07/03 04:16:12;;;;;;;3.40;3.10;;;;;204.60;224519.00;;;;4946656;28;20228;-70
2022/07/03 04:18:58;;;;;;;3.70;3.23;;;;;204.60;224519.00;;;;4944055;28;20387;-70
2022/07/03 04:21:44;;;;;;;3.90;3.53;;;;;204.60;224519.00;;;;4945410;28;20250;-71
2022/07/03 04:24:31;;;;;;;3.10;2.80;;;;;204.60;224519.00;;;;4943783;28;20728;-71
2022/07/03 04:27:17;;;;;;;3.37;3.07;;;;;204.60;224519.00;;;;4943954;28;20311;-71
2022/07/03 04:30:04;;;;;;;3.80;3.20;;;;;204.60;224519.00;;;;4947329;28;20371;-71
2022/07/03 04:32:52;;;;;;;4.50;3.40;;;;;204.60;224519.00;;;;4943085;28;20270;-69
2022/07/03 04:35:38;;;;;;;3.97;3.20;;;;;204.60;224519.00;;;;4944057;28;20219;-69
2022/07/03 04:38:24;;;;;;;4.27;3.30;;;;;204.60;224519.00;;;;4932971;28;20298;-71
2022/07/03 04:41:11;;;;;;;3.90;3.37;;;;;204.60;224519.00;;;;4943143;28;20370;-71
2022/07/03 04:43:57;;;;;;;5.00;3.33;;;;;204.60;224519.00;;;;4945590;28;20232;-70
2022/07/03 04:46:43;;;;;;;3.60;3.30;;;;;204.60;224519.00;;;;4946179;28;20441;-69
2022/07/03 04:49:31;;;;;;;3.57;3.27;;;;;204.60;224519.00;;;;4936275;28;20299;-71
2022/07/03 04:52:18;;;;;;;3.23;3.00;;;;;204.60;224519.00;;;;4942210;28;20231;-70
2022/07/03 04:55:04;;;;;;;3.60;2.90;;;;;204.60;224519.00;;;;4945662;28;20242;-70
2022/07/03 04:57:51;;;;;;;3.83;3.50;;;;;204.60;224519.00;;;;4945179;28;20239;-71
2022/07/03 05:00:37;;;;;;;3.37;3.07;;;;;204.60;224519.00;;;;4936285;28;20239;-71
2022/07/03 05:03:29;;;;;;;4.90;3.50;;;;;204.60;224519.00;;;;4938707;28;20692;-71
2022/07/03 05:06:17;;;;;;;3.47;3.17;;;;;204.60;224519.00;;;;4944586;28;20288;-71
2022/07/03 05:09:05;;;;;;;3.67;2.97;;;;;204.60;224519.00;;;;4942281;28;20247;-68
2022/07/03 05:11:52;;;;;;;3.10;2.90;;;;;204.60;224519.00;;;;4942806;28;20340;-68
2022/07/03 05:14:38;;;;;;;4.07;3.40;;;;;204.60;224519.00;;;;4943054;28;20377;-70
2022/07/03 05:17:25;;;;;;;4.20;3.23;;;;;204.60;224519.00;;;;4945560;28;20241;-69
2022/07/03 05:20:28;;;;;;;3.83;3.40;;;;;204.60;224519.00;;;;4945160;28;20234;-71
2022/07/03 05:23:16;;;;;;;3.57;3.27;;;;;204.60;224519.00;;;;4938758;28;20804;-70
2022/07/03 05:26:02;;;;;;;5.93;3.70;;;;;204.60;224519.00;;;;4946328;28;20288;-70
2022/07/03 05:28:49;;;;;;;4.27;3.20;;;;;204.60;224519.00;;;;4946072;28;20740;-71
2022/07/03 05:31:35;;;;;;;4.53;3.47;;;;;204.60;224519.00;;;;4942730;28;20410;-71
2022/07/03 05:34:22;;;;;;;4.43;3.70;;;;;204.60;224519.00;;;;4942015;28;20234;-70
2022/07/03 05:37:08;;;;;;;4.00;3.60;;;;;204.60;224519.00;;;;4947313;28;20231;-70
2022/07/03 05:39:55;;;;;;;5.17;3.97;;;;;204.60;224519.00;;;;4949452;28;20612;-70
2022/07/03 05:42:42;;;;;;;4.13;3.73;;;;;204.60;224519.00;;;;4944933;28;20260;-70
2022/07/03 05:45:28;;;;;;;6.40;3.70;;;;;204.60;224519.00;;;;4942713;28;20367;-71
2022/07/03 05:48:15;;;;;;;3.80;3.40;;;;;204.60;224519.00;;;;4949679;28;20228;-70
2022/07/03 05:51:01;;;;;;;8.37;4.47;;;;;204.60;224519.00;;;;4946737;28;20729;-70
2022/07/03 05:53:47;;;;;;;3.70;3.37;;;;;204.60;224519.00;;;;4945316;28;20236;-72
2022/07/03 05:56:35;;;;;;;5.00;3.27;;;;;204.60;224519.00;;;;4942907;28;20745;-72
2022/07/03 05:59:21;;;;;;;3.77;3.23;;;;;204.60;224519.00;;;;4947024;28;20280;-72
2022/07/03 06:02:08;;;;;;;3.27;2.97;;;;;204.60;224519.00;;;;4947718;28;20724;-71
2022/07/03 06:04:54;;;;;;;3.10;2.80;;;;;204.60;224519.00;;;;4938850;28;20229;-74
2022/07/03 06:07:40;;;;;;;5.33;3.20;;;;;204.60;224519.00;;;;4940641;28;20367;-71
2022/07/03 06:10:28;;;;;;;3.20;2.90;;;;;204.60;224519.00;;;;4940157;28;20379;-71
2022/07/03 06:13:15;;;;;;;3.33;2.97;;;;;204.60;224519.00;;;;4947454;28;20243;-70
2022/07/03 06:16:01;;;;;;;3.27;2.97;;;;;204.60;224519.00;;;;4939485;28;20241;-71
2022/07/03 06:18:47;;;;;;;3.17;2.87;;;;;204.60;224519.00;;;;4945363;28;20296;-71
2022/07/03 06:21:34;;;;;;;4.17;2.70;;;;;204.60;224519.00;;;;4933342;28;20754;-70
2022/07/03 06:24:20;;;;;;;3.17;2.87;;;;;204.60;224519.00;;;;4937693;28;20813;-71
2022/07/03 06:27:06;;;;;;;3.70;2.63;;;;;204.60;224519.00;;;;4931115;28;20306;-71
2022/07/03 06:29:54;;;;;;;4.37;3.17;;;;;204.60;224519.00;;;;4946505;28;20235;-71
2022/07/03 06:32:40;;;;;;;3.83;3.03;;;;;204.60;224519.00;;;;4943153;28;20236;-71
2022/07/03 06:35:26;;;;;;;4.10;3.47;;;;;204.60;224519.00;;;;4942039;28;20231;-71
2022/07/03 06:38:13;;;;;;;4.23;3.10;;;;;204.60;224519.00;;;;4939520;28;20241;-71
2022/07/03 06:40:59;;;;;;;4.67;3.60;;;;;204.60;224519.00;;;;4935486;28;20356;-71
2022/07/03 06:43:46;;;;;;;4.20;2.90;;;;;204.60;224519.00;;;;4945224;28;20239;-72
2022/07/03 06:46:33;;;;;;;4.50;3.57;;;;;204.60;224519.00;;;;4940209;28;20757;-71
2022/07/03 06:49:20;;;;;;;9.53;3.53;;;;;204.60;224519.00;;;;4934995;28;20279;-71
2022/07/03 06:52:07;;;;;;;5.40;3.33;;;;;204.60;224519.00;;;;4945467;28;20244;-70
2022/07/03 06:54:53;;;;;;;3.83;3.13;;;;;204.60;224519.00;;;;4947586;28;20897;-70
2022/07/03 06:57:40;;;;;;;5.13;3.13;;;;;204.60;224519.00;;;;4936411;28;20231;-70
2022/07/03 07:00:26;;;;;;;7.03;4.03;;;;;204.60;224519.00;;;;4946895;28;20637;-70
2022/07/03 07:03:13;;;;;;;11.10;4.33;;;;;204.60;224519.00;;;;4943722;28;20240;-71
2022/07/03 07:05:59;;;;;;;3.80;3.40;;;;;204.60;224519.00;;;;4934908;28;20240;-71
2022/07/03 07:08:46;;;;;;;4.33;3.00;;;;;204.60;224519.00;;;;4942730;28;20232;-70
2022/07/03 07:11:32;;;;;;;8.47;3.97;;;;;204.60;224519.00;;;;4935321;28;20228;-70
2022/07/03 07:14:18;;;;;;;5.60;3.30;;;;;204.60;224519.00;;;;4938570;28;20251;-70
2022/07/03 07:17:05;;;;;;;3.20;2.90;;;;;204.60;224519.00;;;;4938939;28;20247;-70
2022/07/03 07:19:53;;;;;;;3.40;2.97;;;;;204.60;224519.00;;;;4937764;28;20231;-69
2022/07/03 07:22:39;;;;;;;4.60;3.10;;;;;204.60;224519.00;;;;4942283;28;20695;-69
2022/07/03 07:25:25;;;;;;;6.13;3.17;;;;;204.60;224519.00;;;;4946903;28;20231;-69
2022/07/03 07:28:12;;;;;;;4.97;2.77;;;;;204.60;224519.00;;;;4947828;28;20241;-69
2022/07/03 07:30:58;;;;;;;4.47;2.77;;;;;204.60;224519.00;;;;4930545;29;20224;-70
2022/07/03 07:33:44;;;;;;;3.60;2.73;;;;;204.60;224519.00;;;;4942690;28;20329;-68
2022/07/03 07:36:33;;;;;;;4.33;2.60;;;;;204.60;224519.00;;;;4945962;28;20242;-66
2022/07/03 07:39:19;;;;;;;3.97;2.50;;;;;204.60;224519.00;;;;4946606;28;20248;-71
2022/07/03 07:42:06;;;;;;;4.40;3.17;;;;;204.60;224519.00;;;;4946460;28;20317;-71
2022/07/03 07:44:52;;;;;;;7.00;5.23;;;;;204.60;224519.00;;;;4936654;28;20302;-70
2022/07/03 07:47:39;;;;;;;5.60;3.83;;;;;204.60;224519.00;;;;4943500;28;20236;-70
2022/07/03 07:50:25;;;;;;;3.00;2.63;;;;;204.60;224519.00;;;;4943248;28;20228;-71
2022/07/03 07:53:13;;;;;;;3.80;2.30;;;;;204.60;224519.00;;;;4944837;28;20750;-71
2022/07/03 07:55:59;;;;;;;4.73;2.50;;;;;204.60;224519.00;;;;4946087;28;20322;-71
2022/07/03 07:58:45;;;;;;;6.27;3.00;;;;;204.60;224519.00;;;;4936586;28;20233;-74
2022/07/03 08:07:40;;;;;;;2.97;2.47;;;;;204.60;224519.00;;;;4940636;28;20245;-70
2022/07/03 08:10:28;;;;;;;3.47;2.60;;;;;204.60;224519.00;;;;4944639;28;20335;-71
2022/07/03 08:13:16;;;;;;;4.00;2.83;;;;;204.60;224519.00;;;;4944869;28;20305;-73
2022/07/03 08:16:02;;;;;;;3.73;2.30;;;;;204.60;224519.00;;;;4937247;28;20240;-73
2022/07/03 08:18:49;;;;;;;3.63;2.23;;;;;204.60;224519.00;;;;4945199;28;20240;-72
2022/07/03 08:21:35;;;;;;;2.93;2.27;;;;;204.60;224519.00;;;;4943786;28;20720;-70
2022/07/03 08:24:22;;;;;;;3.17;2.30;;;;;204.60;224519.00;;;;4946448;28;20242;-70
2022/07/03 08:27:09;;;;;;;4.07;2.20;;;;;204.60;224519.00;;;;4933189;28;20314;-72
2022/07/03 08:29:55;;;;;;;4.33;2.30;;;;;204.60;224519.00;;;;4943964;28;20235;-73
2022/07/03 08:32:42;;;;;;;5.27;2.30;;;;;204.60;224519.00;;;;4945728;28;20301;-73
2022/07/03 08:35:29;;;;;;;3.27;2.00;;;;;204.60;224519.00;;;;4941110;28;20221;-73
2022/07/03 08:38:15;;;;;;;2.20;2.00;;;;;204.60;224519.00;;;;4945559;28;20717;-72
2022/07/03 08:41:03;;;;;;;2.27;2.00;;;;;204.60;224519.00;;;;4942561;28;20723;-71
2022/07/03 08:43:52;;;;;;;4.20;2.30;;;;;204.60;224519.00;;;;4941011;28;20315;-73
2022/07/03 08:46:40;;;;;;;4.33;2.27;;;;;204.60;224519.00;;;;4939621;28;20239;-71
2022/07/03 08:49:28;;;;;;;2.70;2.10;;;;;204.60;224519.00;;;;4946779;28;20231;-70
2022/07/03 08:52:15;;;;;;;5.53;2.17;;;;;204.60;224519.00;;;;4945619;28;20292;-72
2022/07/03 08:55:01;;;;;;;7.20;3.50;;;;;204.60;224519.00;;;;4946821;28;20232;-72
2022/07/03 08:57:49;;;;;;;2.93;2.00;;;;;204.60;224519.00;;;;4944929;28;20251;-71
2022/07/03 09:00:37;;;;;;;3.47;2.20;;;;;204.60;224519.00;;;;4936412;28;20359;-70
2022/07/03 09:03:25;;;;;;;3.33;2.20;;;;;204.60;224519.00;;;;4945481;28;20974;-69
2022/07/03 09:06:13;;;;;;;3.37;2.00;;;;;204.60;224519.00;;;;4945160;28;20236;-70
2022/07/03 09:08:59;;;;;;;2.53;2.33;;;;;204.60;224519.00;;;;4946717;28;20240;-71
2022/07/03 09:11:47;;;;;;;3.53;2.40;;;;;204.60;224519.00;;;;4944181;28;20228;-71
2022/07/03 09:14:33;;;;;;;3.70;2.13;;;;;204.60;224519.00;;;;4943576;28;20232;-72
2022/07/03 09:17:22;;;;;;;6.57;2.00;;;;;204.60;224519.00;;;;4942422;28;20244;-70
2022/07/03 09:20:09;;;;;;;2.10;1.80;;;;;204.60;224519.00;;;;4943987;28;20240;-70
2022/07/03 09:23:09;;;;;;;4.63;2.10;;;;;204.60;224519.00;;;;4938653;28;20277;-70
2022/07/03 09:25:57;;;;;;;5.67;3.93;;;;;204.60;224519.00;;;;4938695;28;20235;-71
2022/07/03 09:28:46;;;;;;;4.10;2.60;;;;;204.60;224519.00;;;;4939167;28;20609;-71
2022/07/03 09:31:33;;;;;;;2.47;2.20;;;;;204.60;224519.00;;;;4934674;28;20236;-69
2022/07/03 09:34:22;;;;;;;2.20;2.00;;;;;204.60;224519.00;;;;4936779;28;20361;-71
2022/07/03 09:37:09;;;;;;;4.10;2.30;;;;;204.60;224519.00;;;;4936728;28;20241;-70
2022/07/03 09:39:58;;;;;;;2.23;1.77;;;;;204.60;224519.00;;;;4946511;28;20813;-72
2022/07/03 09:42:59;;;;;;;3.17;2.30;;;;;204.60;224519.00;;;;4948668;28;20355;-72
2022/07/03 09:45:54;;;;;;;4.00;2.17;;;;;204.60;224519.00;;;;4940138;28;20683;-71
2022/07/03 09:48:42;;;;;;;4.17;2.30;;;;;204.60;224519.00;;;;4943405;28;20303;-69
2022/07/03 09:51:29;;;;;;;1.97;1.80;;;;;204.60;224519.00;;;;4947443;28;20331;-69
2022/07/03 09:54:16;;;;;;;2.80;2.00;;;;;204.60;224519.00;;;;4940117;28;20221;-70
2022/07/03 09:57:12;;;;;;;2.30;2.10;;;;;204.60;224519.00;;;;4939440;28;20745;-69
2022/07/03 10:00:11;;;;;;;3.97;2.37;;;;;204.60;224519.00;;;;4942666;28;20240;-71
2022/07/03 10:02:59;;;;;;;4.07;2.30;;;;;204.60;224519.00;;;;4946642;28;20268;-71
2022/07/03 10:05:45;;;;;;;2.17;1.97;;;;;204.60;224519.00;;;;4939001;28;20237;-70
2022/07/03 10:08:33;;;;;;;3.53;1.97;;;;;204.60;224519.00;;;;4934025;28;20224;-69
2022/07/03 10:11:19;;;;;;;2.20;2.00;;;;;204.60;224519.00;;;;4935030;28;20245;-68
2022/07/03 10:14:07;;;;;;;2.70;2.20;;;;;204.60;224519.00;;;;4946182;28;20598;-67
2022/07/03 10:16:55;;;;;;;4.30;2.40;;;;;204.60;224519.00;;;;4945379;28;20232;-69
2022/07/03 10:19:43;;;;;;;4.70;2.23;;;;;204.60;224519.00;;;;4944166;28;20223;-71
2022/07/03 10:22:30;;;;;;;3.27;2.00;;;;;204.60;224519.00;;;;4941635;28;20287;-72
2022/07/03 10:25:18;;;;;;;3.57;1.93;;;;;204.60;224519.00;;;;4945451;28;20598;-73
2022/07/03 10:28:06;;;;;;;3.50;1.80;;;;;204.60;224519.00;;;;4939372;28;20323;-72
2022/07/03 10:30:52;;;;;;;2.30;2.00;;;;;204.60;224519.00;;;;4944417;28;20221;-73
2022/07/03 10:33:38;;;;;;;3.00;2.20;;;;;204.60;224519.00;;;;4947858;28;20240;-72
2022/07/03 10:36:25;;;;;;;3.47;1.80;;;;;204.60;224519.00;;;;4947112;28;20240;-73
2022/07/03 10:39:19;;;;;;;2.08;1.83;;;;;204.60;224519.00;;;;4947441;28;20223;-71
2022/07/03 10:45:15;;;;;;;2.17;1.67;;;;;204.60;224519.00;;;;4945537;28;20803;-73
2022/07/03 10:48:01;;;;;;;3.13;1.90;;;;;204.60;224519.00;;;;4944642;28;20223;-72
2022/07/03 10:51:08;;;;;;;3.05;1.63;;;;;204.60;224519.00;;;;4946322;28;20228;-71
2022/07/03 10:54:14;;;;;;;3.45;1.60;;;;;204.60;224519.00;;;;4943913;28;20232;-72
2022/07/03 10:57:17;;;;;;;3.75;2.10;;;;;204.60;224519.00;;;;4943907;28;20347;-73
2022/07/03 11:00:24;;;;;;;4.90;3.20;;;;;204.60;224519.00;;;;4946565;28;20227;-73
2022/07/03 11:03:11;;;;;;;4.68;1.90;;;;;204.60;224519.00;;;;4947603;28;20232;-72
2022/07/03 11:05:57;;;;;;;2.13;1.83;;;;;204.60;224519.00;;;;4942858;28;20235;-72
2022/07/03 11:09:04;;;;;;;2.88;1.75;;;;;204.60;224519.00;;;;4941462;28;20258;-73
2022/07/03 11:11:57;;;;;;;2.83;2.40;;;;;204.60;224519.00;;;;4946783;28;20231;-72
2022/07/03 11:14:45;;;;;;;3.40;2.15;;;;;204.60;224519.00;;;;4947963;28;20220;-73
2022/07/03 11:17:31;;;;;;;3.00;1.60;;;;;204.60;224519.00;;;;4948483;28;20228;-73
2022/07/03 11:20:26;;;;;;;4.05;1.63;;;;;204.60;224519.00;;;;4947689;28;20220;-72
2022/07/03 11:23:18;;;;;;;4.70;1.70;;;;;204.60;224519.00;;;;4948518;28;20228;-72
2022/07/03 11:26:23;;;;;;;5.28;1.75;;;;;204.60;224519.00;;;;4943615;28;20343;-72
2022/07/03 11:29:28;;;;;;;3.60;2.30;;;;;204.60;224519.00;;;;4943307;28;20227;-73
2022/07/03 11:32:49;;;;;;;3.28;1.88;;;;;204.60;224519.00;;;;4941747;28;20284;-73
2022/07/03 11:35:53;;;;;;;2.03;1.83;;;;;204.60;224519.00;;;;4944593;28;20240;-71
2022/07/03 11:38:40;;;;;;;2.08;1.75;;;;;204.60;224519.00;;;;4946433;28;20228;-70
2022/07/03 11:41:29;;;;;;;2.97;2.05;;;;;204.60;224519.00;;;;4946936;28;20235;-71
2022/07/03 11:44:20;;;;;;;1.92;1.83;;;;;204.60;224519.00;;;;4947020;28;20280;-71
2022/07/03 11:47:06;;;;;;;5.50;1.80;;;;;204.60;224519.00;;;;4942680;28;20244;-72
2022/07/03 11:49:54;;;;;;;1.83;1.60;;;;;204.60;224519.00;;;;4937018;28;20591;-72
2022/07/03 11:52:40;;;;;;;2.25;1.70;;;;;204.60;224519.00;;;;4939704;28;20323;-72
2022/07/03 11:55:27;;;;;;;2.65;1.52;;;;;204.60;224519.00;;;;4937889;28;20240;-72
2022/07/03 11:58:13;;;;;;;2.83;1.70;;;;;204.60;224519.00;;;;4943414;28;20271;-72
2022/07/03 12:00:59;;;;;;;2.28;1.67;;;;;204.60;224519.00;;;;4941691;28;20660;-72
2022/07/03 12:03:45;;;;;;;2.05;1.42;;;;;204.60;224519.00;;;;4939491;28;20700;-72
2022/07/03 12:06:37;;;;;;;2.17;1.60;;;;;204.60;224519.00;;;;4946754;28;20251;-71
2022/07/03 12:09:26;;;;;;;3.38;2.05;;;;;204.60;224519.00;;;;4946459;28;20231;-71
2022/07/03 12:12:12;;;;;;;3.63;1.77;;;;;204.60;224519.00;;;;4943106;28;20396;-72
2022/07/03 12:14:58;;;;;;;3.30;2.30;;;;;204.60;224519.00;;;;4945615;28;20228;-71
2022/07/03 12:17:45;;;;;;;1.70;1.60;;;;;204.60;224519.00;;;;4936897;28;20228;-72
2022/07/03 12:20:31;;;;;;;1.77;1.50;;;;;204.60;224519.00;;;;4936804;28;20362;-71
2022/07/03 12:23:19;;;;;;;2.03;1.27;;;;;204.60;224519.00;;;;4943587;28;20231;-70
2022/07/03 12:26:05;;;;;;;1.70;1.60;;;;;204.60;224519.00;;;;4941790;28;20247;-72
2022/07/03 12:28:52;;;;;;;1.83;1.52;;;;;204.60;224519.00;;;;4940913;28;20228;-71
2022/07/03 12:31:40;;;;;;;1.38;1.27;;;;;204.60;224519.00;;;;4947353;28;20240;-71
2022/07/03 12:34:26;;;;;;;7.22;1.48;;;;;204.60;224519.00;;;;4943909;28;20276;-71
2022/07/03 12:37:13;;;;;;;1.88;1.40;;;;;204.60;224519.00;;;;4942500;28;20232;-71
2022/07/03 12:40:00;;;;;;;3.55;1.45;;;;;204.60;224519.00;;;;4935313;28;20228;-72
2022/07/03 12:42:48;;;;;;;2.55;1.40;;;;;204.60;224519.00;;;;4943714;28;20642;-72
2022/07/03 12:45:35;;;;;;;3.25;1.45;;;;;204.60;224519.00;;;;4940086;28;20737;-70
2022/07/03 12:48:21;;;;;;;1.92;1.45;;;;;204.60;224519.00;;;;4944511;28;20240;-72
2022/07/03 12:51:08;;;;;;;1.50;1.35;;;;;204.60;224519.00;;;;4936329;28;20255;-71
2022/07/03 12:53:56;;;;;;;1.38;1.25;;;;;204.60;224519.00;;;;4939993;28;20223;-72
2022/07/03 12:56:44;;;;;;;2.05;1.20;;;;;204.60;224519.00;;;;4941549;28;20232;-71
2022/07/03 12:59:29;;;;;;;3.40;1.10;;;;;204.60;224519.00;;;;4942647;28;20291;-71
2022/07/03 13:02:16;;;;;;;1.88;1.20;;;;;204.60;224519.00;;;;4947312;28;20697;-73
2022/07/03 13:05:15;;;;;;;1.33;1.10;;;;;204.60;224519.00;;;;4942186;28;20244;-71
2022/07/03 13:08:06;;;;;;;2.53;1.20;;;;;204.60;224519.00;;;;4941332;28;20228;-71
2022/07/03 13:10:56;;;;;;;2.90;1.20;;;;;204.60;224519.00;;;;4939236;28;20249;-71
2022/07/03 13:13:48;;;;;;;1.58;1.27;;;;;204.60;224519.00;;;;4945044;28;20228;-72
2022/07/03 13:16:40;;;;;;;1.35;1.10;;;;;204.60;224519.00;;;;4945640;28;20319;-71
2022/07/03 13:19:28;;;;;;;4.00;1.20;;;;;204.60;224519.00;;;;4941677;28;21063;-71
2022/07/03 13:22:14;;;;;;;2.55;1.30;;;;;204.60;224519.00;;;;4944205;28;20639;-73
2022/07/03 13:25:00;;;;;;;2.15;1.17;;;;;204.60;224519.00;;;;4943786;28;20685;-73
2022/07/03 13:27:46;;;;;;;1.50;1.40;;;;;204.60;224519.00;;;;4936897;28;20618;-73
2022/07/03 13:30:34;;;;;;;1.45;1.10;;;;;204.60;224519.00;;;;4944216;28;20313;-73
2022/07/03 13:33:20;;;;;;;2.70;1.23;;;;;204.60;224519.00;;;;4945017;28;20740;-73
2022/07/03 13:36:06;;;;;;;1.83;1.52;;;;;204.60;224519.00;;;;4940650;28;20260;-73
2022/07/03 13:38:53;;;;;;;1.73;1.10;;;;;204.60;224519.00;;;;4941158;28;20235;-73
2022/07/03 13:41:39;;;;;;;1.00;1.00;;;;;204.60;224519.00;;;;4944503;28;20236;-73
2022/07/03 13:44:25;;;;;;;1.52;0.95;;;;;204.60;224519.00;;;;4938775;28;20229;-73
2022/07/03 13:47:13;;;;;;;1.85;1.10;;;;;204.60;224519.00;;;;4939118;28;20244;-76
2022/07/03 13:49:59;;;;;;;2.78;1.10;;;;;204.60;224519.00;;;;4943875;28;20227;-72
2022/07/03 13:52:46;;;;;;;1.27;1.00;;;;;204.60;224519.00;;;;4939654;28;20228;-72